createdAt,value
2022-12-15T00:00:24.108Z,14.33
2022-12-15T00:03:11.286Z,13.33
2022-12-15T00:05:57.219Z,13.03
2022-12-15T00:08:43.346Z,13.57
2022-12-15T00:11:29.265Z,14.13
2022-12-15T00:14:15.433Z,12.10
2022-12-15T00:17:01.288Z,12.13
2022-12-15T00:19:48.395Z,12.30
2022-12-15T00:22:34.391Z,11.10
2022-12-15T00:25:20.314Z,12.53
2022-12-15T00:28:06.170Z,12.10
2022-12-15T00:30:52.537Z,10.17
2022-12-15T00:33:40.052Z,10.83
2022-12-15T00:36:27.835Z,11.33
2022-12-15T00:38:59.241Z,11.67
2022-12-15T00:41:31.901Z,9.73
2022-12-15T00:44:00.322Z,10.07
2022-12-15T00:46:46.239Z,12.17
2022-12-15T00:49:28.742Z,10.77
2022-12-15T00:52:15.813Z,10.03
2022-12-15T00:55:02.042Z,10.63
2022-12-15T00:57:47.510Z,12.00
2022-12-15T01:00:33.923Z,10.97
2022-12-15T01:03:20.424Z,12.10
2022-12-15T01:06:06.447Z,10.47
2022-12-15T01:08:53.655Z,11.27
2022-12-15T01:11:39.609Z,10.67
2022-12-15T01:14:25.224Z,11.40
2022-12-15T01:17:11.122Z,11.30
2022-12-15T01:19:57.261Z,11.47
2022-12-15T01:22:25.661Z,11.73
2022-12-15T01:24:55.530Z,10.47
2022-12-15T01:27:23.927Z,11.07
2022-12-15T01:29:52.275Z,11.57
2022-12-15T01:32:21.062Z,10.57
2022-12-15T01:34:49.397Z,10.83
2022-12-15T01:37:17.763Z,10.97
2022-12-15T01:40:03.555Z,10.27
2022-12-15T01:42:33.365Z,9.73
2022-12-15T01:45:35.005Z,10.07
2022-12-15T01:48:04.778Z,9.23
2022-12-15T01:50:34.095Z,9.57
2022-12-15T01:53:02.489Z,10.13
2022-12-15T01:55:30.865Z,9.50
2022-12-15T01:58:01.854Z,9.83
2022-12-15T02:00:30.419Z,10.13
2022-12-15T02:02:59.122Z,9.50
2022-12-15T02:05:27.566Z,9.73
2022-12-15T02:07:55.915Z,10.20
2022-12-15T02:10:24.318Z,9.13
2022-12-15T02:12:55.396Z,8.23
2022-12-15T02:15:26.932Z,9.00
2022-12-15T02:17:58.849Z,9.57
2022-12-15T02:20:37.548Z,9.43
2022-12-15T02:23:35.600Z,8.80
2022-12-15T02:26:28.461Z,8.50
2022-12-15T02:29:00.279Z,8.87
2022-12-15T02:31:50.005Z,8.70
2022-12-15T02:34:23.423Z,9.73
2022-12-15T02:36:53.133Z,8.83
2022-12-15T02:39:21.827Z,8.43
2022-12-15T02:41:51.750Z,9.03
2022-12-15T02:44:22.644Z,7.40
2022-12-15T02:47:03.015Z,9.57
2022-12-15T02:49:33.489Z,9.13
2022-12-15T02:52:07.481Z,8.20
2022-12-15T02:54:48.124Z,8.53
2022-12-15T02:57:19.418Z,8.70
2022-12-15T02:59:55.569Z,8.77
2022-12-15T03:02:25.952Z,9.17
2022-12-15T03:04:54.435Z,8.27
2022-12-15T03:07:24.190Z,8.83
2022-12-15T03:09:52.884Z,8.07
2022-12-15T03:12:21.218Z,8.20
2022-12-15T03:14:49.635Z,8.40
2022-12-15T03:17:18.089Z,8.40
2022-12-15T03:19:49.895Z,8.20
2022-12-15T03:22:19.833Z,8.27
2022-12-15T03:24:48.486Z,8.53
2022-12-15T03:27:17.006Z,8.90
2022-12-15T03:29:45.488Z,8.73
2022-12-15T03:32:13.967Z,8.87
2022-12-15T03:34:42.391Z,8.50
2022-12-15T03:37:12.207Z,7.80
2022-12-15T03:39:40.731Z,7.90
2022-12-15T03:42:09.145Z,7.93
2022-12-15T03:44:37.441Z,8.20
2022-12-15T03:47:06.013Z,7.97
2022-12-15T03:49:34.775Z,8.37
2022-12-15T03:52:03.166Z,8.23
2022-12-15T03:54:32.954Z,7.43
2022-12-15T03:57:01.372Z,7.67
2022-12-15T03:59:29.789Z,7.47
2022-12-15T04:01:58.225Z,7.70
2022-12-15T04:04:27.006Z,7.47
2022-12-15T04:06:55.355Z,7.43
2022-12-15T04:09:23.874Z,8.67
2022-12-15T04:11:53.731Z,13.63
2022-12-15T04:14:22.126Z,16.80
2022-12-15T04:16:50.888Z,22.30
2022-12-15T04:19:36.698Z,19.07
2022-12-15T04:22:05.139Z,16.10
2022-12-15T04:24:51.115Z,14.33
2022-12-15T04:27:41.281Z,11.60
2022-12-15T04:30:28.668Z,11.77
2022-12-15T04:33:14.675Z,11.40
2022-12-15T04:36:00.661Z,10.33
2022-12-15T04:38:50.425Z,10.10
2022-12-15T04:41:39.444Z,9.90
2022-12-15T04:44:26.717Z,8.50
2022-12-15T04:47:12.754Z,7.80
2022-12-15T04:49:59.003Z,7.87
2022-12-15T04:52:45.014Z,7.13
2022-12-15T04:55:30.815Z,6.10
2022-12-15T04:58:16.964Z,6.67
2022-12-15T05:01:03.965Z,7.10
2022-12-15T05:03:50.199Z,6.70
2022-12-15T05:06:36.182Z,6.50
2022-12-15T05:09:21.935Z,7.00
2022-12-15T05:12:08.045Z,6.37
2022-12-15T05:14:53.822Z,6.50
2022-12-15T05:17:41.927Z,6.77
2022-12-15T05:20:28.288Z,5.63
2022-12-15T05:23:14.484Z,6.03
2022-12-15T05:26:00.452Z,6.40
2022-12-15T05:28:46.869Z,6.90
2022-12-15T05:31:33.107Z,6.23
2022-12-15T05:34:05.467Z,7.17
2022-12-15T05:36:34.242Z,6.97
2022-12-15T05:39:02.942Z,5.77
2022-12-15T05:41:31.380Z,6.20
2022-12-15T05:43:59.967Z,6.53
2022-12-15T05:46:28.313Z,6.80
2022-12-15T05:48:56.746Z,5.93
2022-12-15T05:51:26.591Z,6.50
2022-12-15T05:53:55.288Z,6.30
2022-12-15T05:56:23.633Z,6.53
2022-12-15T05:58:51.989Z,6.70
2022-12-15T06:01:20.514Z,6.50
2022-12-15T06:03:49.064Z,7.03
2022-12-15T06:06:17.490Z,7.10
2022-12-15T06:08:49.999Z,6.73
2022-12-15T06:11:19.413Z,8.23
2022-12-15T06:13:47.955Z,8.40
2022-12-15T06:16:17.257Z,7.70
2022-12-15T06:18:49.859Z,6.83
2022-12-15T06:21:20.167Z,7.37
2022-12-15T06:23:50.016Z,6.77
2022-12-15T06:26:20.612Z,6.40
2022-12-15T06:28:49.086Z,6.73
2022-12-15T06:31:18.052Z,6.53
2022-12-15T06:33:46.482Z,5.70
2022-12-15T06:36:15.818Z,6.67
2022-12-15T06:38:44.220Z,6.93
2022-12-15T06:41:14.787Z,6.17
2022-12-15T06:43:43.326Z,6.20
2022-12-15T06:46:11.986Z,6.47
2022-12-15T06:48:42.392Z,6.73
2022-12-15T06:51:16.765Z,5.60
2022-12-15T06:53:48.967Z,5.47
2022-12-15T06:56:23.209Z,5.93
2022-12-15T06:58:54.025Z,6.27
2022-12-15T07:01:23.912Z,5.97
2022-12-15T07:03:52.769Z,5.13
2022-12-15T07:06:21.396Z,5.33
2022-12-15T07:08:52.423Z,9.07
2022-12-15T07:11:22.820Z,9.57
2022-12-15T07:13:51.160Z,10.90
2022-12-15T07:16:19.993Z,12.00
2022-12-15T07:18:48.755Z,13.70
2022-12-15T07:21:17.127Z,14.27
2022-12-15T07:23:54.786Z,15.03
2022-12-15T07:26:26.170Z,14.57
2022-12-15T07:28:54.984Z,16.30
2022-12-15T07:31:23.558Z,15.40
2022-12-15T07:33:53.950Z,16.90
2022-12-15T07:36:22.338Z,17.47
2022-12-15T07:38:51.604Z,18.30
2022-12-15T07:41:20.377Z,20.00
2022-12-15T07:43:50.754Z,24.37
2022-12-15T07:46:19.391Z,25.60
2022-12-15T07:48:50.692Z,26.07
2022-12-15T07:51:21.181Z,21.47
2022-12-15T07:53:51.266Z,18.47
2022-12-15T07:56:22.070Z,18.20
2022-12-15T07:58:52.496Z,16.57
2022-12-15T08:01:20.983Z,15.43
2022-12-15T08:03:50.062Z,18.60
2022-12-15T08:06:18.575Z,18.40
2022-12-15T08:08:49.923Z,21.23
2022-12-15T08:11:24.902Z,22.10
2022-12-15T08:14:03.577Z,20.83
2022-12-15T08:16:34.732Z,18.07
2022-12-15T08:19:03.329Z,15.87
2022-12-15T08:21:32.328Z,14.27
2022-12-15T08:24:02.097Z,14.20
2022-12-15T08:26:31.626Z,14.73
2022-12-15T08:29:48.955Z,28.97
2022-12-15T08:31:54.058Z,30.77
2022-12-15T08:34:22.585Z,45.10
2022-12-15T08:36:50.907Z,39.10
2022-12-15T08:39:21.358Z,38.53
2022-12-15T08:41:50.816Z,34.13
2022-12-15T08:44:20.658Z,30.57
2022-12-15T08:46:49.184Z,30.00
2022-12-15T08:49:21.690Z,27.00
2022-12-15T08:51:50.961Z,28.13
2022-12-15T08:54:19.627Z,22.27
2022-12-15T08:56:48.214Z,22.07
2022-12-15T08:59:16.650Z,18.53
2022-12-15T09:01:46.526Z,18.07
2022-12-15T09:04:15.908Z,16.50
2022-12-15T09:06:45.078Z,15.50
2022-12-15T09:09:19.154Z,14.00
2022-12-15T09:11:47.530Z,13.57
2022-12-15T09:14:16.041Z,14.17
2022-12-15T09:16:46.058Z,16.07
2022-12-15T09:19:19.332Z,18.93
2022-12-15T09:21:48.411Z,19.30
2022-12-15T09:24:25.912Z,18.33
2022-12-15T09:27:00.732Z,17.10
2022-12-15T09:29:29.234Z,19.63
2022-12-15T09:31:59.471Z,21.80
2022-12-15T09:34:30.889Z,22.63
2022-12-15T09:36:59.279Z,22.23
2022-12-15T09:39:27.752Z,19.43
2022-12-15T09:41:57.099Z,15.53
2022-12-15T09:44:26.062Z,12.23
2022-12-15T09:47:05.084Z,11.37
2022-12-15T09:49:42.486Z,13.37
2022-12-15T09:52:13.124Z,14.43
2022-12-15T09:54:42.546Z,15.97
2022-12-15T09:57:15.637Z,17.63
2022-12-15T09:59:54.245Z,19.73
2022-12-15T10:02:35.795Z,18.67
2022-12-15T10:05:07.119Z,21.03
2022-12-15T10:07:39.682Z,21.90
2022-12-15T10:10:12.747Z,22.83
2022-12-15T10:12:47.845Z,19.67
2022-12-15T10:15:24.311Z,12.83
2022-12-15T10:17:57.782Z,9.03
2022-12-15T10:20:27.526Z,9.17
2022-12-15T10:22:56.825Z,7.57
2022-12-15T10:25:30.452Z,7.87
2022-12-15T10:28:12.617Z,6.33
2022-12-15T10:30:42.985Z,5.17
2022-12-15T10:33:19.363Z,4.67
2022-12-15T10:35:47.835Z,4.80
2022-12-15T10:38:28.375Z,5.43
2022-12-15T10:40:57.345Z,5.33
2022-12-15T10:43:34.705Z,4.70
2022-12-15T10:46:10.737Z,4.63
2022-12-15T10:48:40.592Z,5.17
2022-12-15T10:51:20.418Z,4.73
2022-12-15T10:53:50.922Z,4.43
2022-12-15T10:59:23.891Z,6.00
2022-12-15T11:01:52.675Z,6.70
2022-12-15T11:04:29.162Z,6.33
2022-12-15T11:06:58.310Z,6.00
2022-12-15T11:09:29.752Z,5.63
2022-12-15T11:12:15.546Z,4.90
2022-12-15T11:14:45.841Z,4.67
2022-12-15T11:17:16.841Z,13.03
2022-12-15T11:19:54.007Z,15.27
2022-12-15T11:22:31.422Z,21.40
2022-12-15T11:25:00.844Z,13.23
2022-12-15T11:27:32.044Z,9.17
2022-12-15T11:30:03.993Z,8.30
2022-12-15T11:32:34.427Z,10.10
2022-12-15T11:35:04.385Z,7.07
2022-12-15T11:37:40.742Z,7.77
2022-12-15T11:40:20.814Z,14.40
2022-12-15T11:43:00.793Z,12.97
2022-12-15T11:45:35.761Z,9.90
2022-12-15T11:48:07.174Z,13.77
2022-12-15T11:50:52.178Z,10.07
2022-12-15T11:53:27.526Z,10.33
2022-12-15T11:56:01.743Z,10.23
2022-12-15T11:58:41.115Z,9.23
2022-12-15T12:01:13.720Z,8.73
2022-12-15T12:03:48.236Z,10.40
2022-12-15T12:06:19.185Z,9.63
2022-12-15T12:09:01.461Z,9.93
2022-12-15T12:11:30.703Z,8.87
2022-12-15T12:14:13.013Z,9.23
2022-12-15T12:19:41.801Z,8.80
2022-12-15T12:22:15.337Z,7.90
2022-12-15T12:24:45.933Z,8.57
2022-12-15T12:27:24.057Z,12.07
2022-12-15T12:29:54.168Z,10.43
2022-12-15T12:32:28.406Z,11.17
2022-12-15T12:35:29.784Z,11.27
2022-12-15T12:37:54.897Z,11.47
2022-12-15T12:40:29.689Z,11.43
2022-12-15T12:42:58.562Z,9.43
2022-12-15T12:45:29.090Z,9.77
2022-12-15T12:47:58.313Z,8.63
2022-12-15T12:50:27.793Z,8.73
2022-12-15T12:52:58.820Z,8.23
2022-12-15T12:55:36.768Z,7.80
2022-12-15T12:58:05.167Z,7.87
2022-12-15T13:00:33.968Z,7.57
2022-12-15T13:03:17.590Z,8.07
2022-12-15T13:05:50.979Z,6.63
2022-12-15T13:08:28.671Z,6.73
2022-12-15T13:10:57.516Z,7.53
2022-12-15T13:13:42.086Z,7.60
2022-12-15T13:16:12.325Z,7.50
2022-12-15T13:19:07.920Z,7.27
2022-12-15T13:21:55.394Z,6.53
2022-12-15T13:24:35.257Z,6.13
2022-12-15T13:27:15.443Z,5.63
2022-12-15T13:29:59.846Z,5.90
2022-12-15T13:32:34.501Z,5.40
2022-12-15T13:35:17.089Z,5.93
2022-12-15T13:37:49.018Z,5.60
2022-12-15T13:40:56.175Z,5.83
2022-12-15T13:43:52.409Z,6.17
2022-12-15T13:46:24.757Z,5.87
2022-12-15T13:48:54.449Z,5.70
2022-12-15T13:51:30.508Z,4.90
2022-12-15T13:54:01.414Z,5.03
2022-12-15T13:56:49.018Z,5.50
2022-12-15T13:59:25.956Z,6.27
2022-12-15T14:01:54.580Z,5.20
2022-12-15T14:04:23.086Z,5.30
2022-12-15T14:06:53.823Z,5.10
2022-12-15T14:09:24.388Z,7.27
2022-12-15T14:11:54.530Z,11.97
2022-12-15T14:14:26.907Z,7.90
2022-12-15T14:16:57.882Z,8.47
2022-12-15T14:19:27.189Z,7.47
2022-12-15T14:21:56.254Z,9.73
2022-12-15T14:24:38.592Z,15.30
2022-12-15T14:27:09.622Z,11.33
2022-12-15T14:29:38.028Z,10.00
2022-12-15T14:32:06.897Z,9.20
2022-12-15T14:34:37.120Z,8.17
2022-12-15T14:37:07.948Z,8.20
2022-12-15T14:39:38.532Z,7.53
2022-12-15T14:42:07.574Z,8.20
2022-12-15T14:44:39.363Z,7.23
2022-12-15T14:47:11.440Z,8.10
2022-12-15T14:49:41.868Z,8.73
2022-12-15T14:52:22.097Z,9.23
2022-12-15T14:54:57.529Z,7.77
2022-12-15T14:57:27.137Z,7.03
2022-12-15T14:59:57.139Z,8.40
2022-12-15T15:02:27.129Z,7.80
2022-12-15T15:03:10.065Z,8.67
2022-12-15T15:03:10.572Z,5.27
2022-12-15T15:05:07.397Z,8.67
2022-12-15T15:07:36.494Z,8.63
2022-12-15T15:10:05.421Z,8.03
2022-12-15T15:12:43.807Z,8.63
2022-12-15T15:15:16.694Z,8.03
2022-12-15T15:17:46.569Z,8.33
2022-12-15T15:20:19.412Z,9.17
2022-12-15T15:22:47.898Z,8.87
2022-12-15T15:25:33.610Z,8.37
2022-12-15T15:28:16.769Z,8.50
2022-12-15T15:30:48.544Z,8.87
2022-12-15T15:33:17.462Z,8.50
2022-12-15T15:35:46.265Z,9.13
2022-12-15T15:38:19.640Z,8.53
2022-12-15T15:40:56.183Z,8.70
2022-12-15T15:43:25.401Z,8.07
2022-12-15T15:45:59.224Z,8.23
2022-12-15T15:48:29.094Z,7.57
2022-12-15T15:50:57.745Z,8.53
2022-12-15T15:53:26.262Z,8.23
2022-12-15T15:55:55.165Z,7.10
2022-12-15T15:58:23.638Z,7.93
2022-12-15T16:00:53.557Z,7.27
2022-12-15T16:03:23.523Z,7.10
2022-12-15T16:05:53.246Z,6.87
2022-12-15T16:08:23.178Z,7.73
2022-12-15T16:10:52.692Z,9.37
2022-12-15T16:13:26.278Z,10.47
2022-12-15T16:15:55.450Z,10.30
2022-12-15T16:18:25.567Z,13.23
2022-12-15T16:20:54.424Z,12.63
2022-12-15T16:23:25.137Z,12.47
2022-12-15T16:25:54.470Z,15.17
2022-12-15T16:28:23.827Z,14.97
2022-12-15T16:30:52.383Z,15.40
2022-12-15T16:33:20.799Z,12.50
2022-12-15T16:35:51.111Z,17.20
2022-12-15T16:38:24.050Z,18.73
2022-12-15T16:40:52.697Z,24.13
2022-12-15T16:43:25.057Z,22.20
2022-12-15T16:45:54.096Z,23.50
2022-12-15T16:48:22.821Z,23.80
2022-12-15T16:50:53.561Z,22.77
2022-12-15T16:53:24.825Z,21.67
2022-12-15T16:55:54.381Z,22.30
2022-12-15T16:58:22.954Z,20.80
2022-12-15T17:00:51.528Z,19.63
2022-12-15T17:03:23.366Z,20.57
2022-12-15T17:05:54.475Z,22.77
2022-12-15T17:08:24.841Z,22.07
2022-12-15T17:10:53.323Z,22.00
2022-12-15T17:13:23.326Z,22.77
2022-12-15T17:15:51.793Z,25.00
2022-12-15T17:18:20.649Z,27.80
2022-12-15T17:20:49.119Z,35.93
2022-12-15T17:23:20.534Z,53.43
2022-12-15T17:28:38.001Z,26.83
2022-12-15T17:31:07.010Z,27.63
2022-12-15T17:33:38.389Z,32.40
2022-12-15T17:36:12.566Z,34.50
2022-12-15T17:38:42.365Z,35.47
2022-12-15T17:41:28.829Z,36.67
2022-12-15T17:46:53.096Z,33.40
2022-12-15T17:49:21.615Z,32.30
2022-12-15T17:51:50.054Z,29.00
2022-12-15T17:54:20.210Z,28.00
2022-12-15T17:56:50.227Z,28.13
2022-12-15T17:59:20.263Z,26.47
2022-12-15T18:01:49.008Z,24.63
2022-12-15T18:04:17.599Z,23.83
2022-12-15T18:06:46.149Z,24.23
2022-12-15T18:09:15.553Z,22.17
2022-12-15T18:11:46.987Z,21.40
2022-12-15T18:14:16.784Z,22.30
2022-12-15T18:16:45.278Z,20.13
2022-12-15T18:19:13.790Z,19.37
2022-12-15T18:21:42.375Z,18.40
2022-12-15T18:24:13.400Z,16.80
2022-12-15T18:26:42.101Z,17.90
2022-12-15T18:29:17.864Z,18.97
2022-12-15T18:31:47.060Z,29.07
2022-12-15T18:34:17.553Z,26.27
2022-12-15T18:36:46.158Z,20.10
2022-12-15T18:39:19.709Z,24.10
2022-12-15T18:41:48.101Z,22.77
2022-12-15T18:44:22.980Z,22.53
2022-12-15T18:46:51.974Z,20.87
2022-12-15T18:49:21.706Z,21.00
2022-12-15T18:51:50.438Z,18.93
2022-12-15T18:54:20.695Z,18.10
2022-12-15T18:56:49.153Z,19.80
2022-12-15T18:59:19.605Z,20.30
2022-12-15T19:01:48.806Z,19.43
2022-12-15T19:04:17.287Z,19.13
2022-12-15T19:06:46.249Z,18.30
2022-12-15T19:09:15.724Z,18.00
2022-12-15T19:12:04.283Z,16.00
2022-12-15T19:14:43.640Z,18.40
2022-12-15T19:17:29.705Z,20.73
2022-12-15T19:20:15.622Z,20.30
2022-12-15T19:22:44.158Z,19.30
2022-12-15T19:25:12.857Z,20.50
2022-12-15T19:27:41.303Z,19.87
2022-12-15T19:30:16.694Z,18.63
2022-12-15T19:32:45.310Z,18.37
2022-12-15T19:35:14.150Z,16.77
2022-12-15T19:37:43.582Z,17.00
2022-12-15T19:40:18.223Z,18.13
2022-12-15T19:42:46.630Z,17.23
2022-12-15T19:45:18.149Z,14.80
2022-12-15T19:47:46.573Z,15.77
2022-12-15T19:50:16.278Z,17.13
2022-12-15T19:52:45.016Z,16.40
2022-12-15T19:55:16.999Z,15.53
2022-12-15T19:57:48.529Z,15.57
2022-12-15T20:00:21.880Z,17.07
2022-12-15T20:02:51.801Z,19.97
2022-12-15T20:05:20.405Z,21.83
2022-12-15T20:07:49.009Z,27.40
2022-12-15T20:10:24.352Z,26.47
2022-12-15T20:12:54.642Z,29.33
2022-12-15T20:15:25.906Z,27.80
2022-12-15T20:17:56.875Z,26.30
2022-12-15T20:20:26.974Z,25.23
2022-12-15T20:22:56.547Z,24.03
2022-12-15T20:25:26.351Z,23.00
2022-12-15T20:27:55.490Z,22.00
2022-12-15T20:30:26.644Z,18.23
2022-12-15T20:32:55.073Z,18.93
2022-12-15T20:35:23.693Z,17.17
2022-12-15T20:37:52.687Z,15.90
2022-12-15T20:40:22.466Z,14.03
2022-12-15T20:42:51.412Z,15.53
2022-12-15T20:45:21.083Z,19.17
2022-12-15T20:47:51.344Z,21.57
2022-12-15T20:50:29.332Z,20.83
2022-12-15T20:52:57.756Z,22.33
2022-12-15T20:55:26.543Z,21.77
2022-12-15T20:57:55.195Z,20.10
2022-12-15T21:00:23.820Z,19.50
2022-12-15T21:02:55.315Z,22.37
2022-12-15T21:05:24.831Z,21.30
2022-12-15T21:07:53.598Z,21.50
2022-12-15T21:10:22.094Z,21.00
2022-12-15T21:12:50.767Z,20.60
2022-12-15T21:15:20.157Z,19.50
2022-12-15T21:17:57.240Z,19.00
2022-12-15T21:20:39.797Z,20.20
2022-12-15T21:23:10.800Z,22.27
2022-12-15T21:25:39.127Z,24.83
2022-12-15T21:28:11.547Z,26.00
2022-12-15T21:30:40.228Z,25.07
2022-12-15T21:33:08.816Z,26.87
2022-12-15T21:35:38.730Z,27.67
2022-12-15T21:38:07.174Z,27.97
2022-12-15T21:40:35.623Z,25.00
2022-12-15T21:43:05.412Z,20.97
2022-12-15T21:45:33.764Z,23.37
2022-12-15T21:48:19.981Z,19.30
2022-12-15T21:50:49.814Z,18.83
2022-12-15T21:53:19.863Z,17.17
2022-12-15T21:55:48.643Z,17.63
2022-12-15T21:58:20.885Z,14.33
2022-12-15T22:00:49.362Z,14.73
2022-12-15T22:03:18.079Z,13.57
2022-12-15T22:05:46.537Z,14.07
2022-12-15T22:08:17.962Z,13.23
2022-12-15T22:10:47.015Z,12.63
2022-12-15T22:13:19.141Z,11.63
2022-12-15T22:15:47.699Z,12.77
2022-12-15T22:18:22.049Z,14.13
2022-12-15T22:20:50.907Z,14.13
2022-12-15T22:23:21.047Z,15.70
2022-12-15T22:25:50.672Z,17.77
2022-12-15T22:28:21.758Z,17.50
2022-12-15T22:30:51.287Z,16.30
2022-12-15T22:33:23.857Z,18.20
2022-12-15T22:35:52.590Z,18.53
2022-12-15T22:38:24.898Z,17.03
2022-12-15T22:40:55.437Z,18.10
2022-12-15T22:43:27.741Z,17.00
2022-12-15T22:45:56.567Z,17.93
2022-12-15T22:48:25.679Z,17.47
2022-12-15T22:50:54.049Z,18.17
2022-12-15T22:53:24.761Z,16.30
2022-12-15T22:55:53.221Z,16.37
2022-12-15T22:58:25.318Z,17.93
2022-12-15T23:00:53.945Z,15.53
2022-12-15T23:03:23.210Z,16.43
2022-12-15T23:05:52.108Z,17.20
2022-12-15T23:08:20.422Z,16.43
2022-12-15T23:11:08.081Z,18.20
2022-12-15T23:13:36.498Z,16.47
2022-12-15T23:16:22.337Z,15.50
2022-12-15T23:18:51.757Z,16.17
2022-12-15T23:21:21.116Z,15.43
2022-12-15T23:23:49.813Z,16.53
2022-12-15T23:26:21.705Z,16.27
2022-12-15T23:28:50.548Z,15.17
2022-12-15T23:31:19.072Z,16.77
2022-12-15T23:33:47.582Z,17.93
2022-12-15T23:36:16.310Z,15.70
2022-12-15T23:38:44.852Z,16.23
2022-12-15T23:41:16.495Z,15.93
2022-12-15T23:43:46.359Z,16.23
2022-12-15T23:46:14.946Z,15.20
2022-12-15T23:48:44.704Z,15.40
2022-12-15T23:51:14.152Z,16.73
2022-12-15T23:53:42.652Z,15.13
2022-12-15T23:56:12.051Z,16.33
2022-12-15T23:58:40.636Z,15.00
